Terminal Aerodrome Forecast
Issued by NWS Wilmington, OH

Current Version | Previous Version | Text Only | Print | Product List | Glossary Off
Versions: 1 2 3 4 5 6 7 8 9 10 11 12 13 14 15 16 17 18 19 20 21

871
FTUS41 KILN 260532
TAFDAY
TAF
KDAY 260532Z 2606/2706 14008KT P6SM FEW080 SCT140 OVC220
     FM260900 16007KT P6SM -SHRA OVC050
      TEMPO 2609/2613 5SM -SHRA BKN025
     FM261300 16008KT P6SM -SHRA OVC050
      TEMPO 2613/2617 5SM -SHRA
     FM261700 20008KT P6SM -SHRA VCTS OVC035CB
     FM262300 21007KT P6SM VCSH BKN050
     FM270000 21007KT P6SM BKN090=

USA.gov is the U.S. government's official web portal to all federal, state and local government web resources and services.